Time;durP1;ratioP1;P1;durP2;ratioP2;P2;SDS_P1;SDS_P2;PMS_P1;PMS_P2;Temp;Humidity;BMP_temperature;BMP_pressure;BME280_temperature;BME280_humidity;BME280_pressure;Samples;Min_cycle;Max_cycle;Signal;HPM_P1;HPM_P2
2022/09/28 00:01:54;;;;;;;20.42;12.82;;;9.30;99.90;;;;;;5019726;28;20029;-44
2022/09/28 00:04:19;;;;;;;15.18;12.02;;;9.30;99.90;;;;;;5022546;28;20025;-45
2022/09/28 00:06:46;;;;;;;19.60;14.25;;;9.30;99.90;;;;;;5020713;28;20018;-44
2022/09/28 00:09:15;;;;;;;21.83;14.25;;;9.40;99.90;;;;;;5021200;28;20045;-45
2022/09/28 00:11:42;;;;;;;17.35;14.32;;;9.40;99.90;;;;;;5020782;28;20092;-45
2022/09/28 00:14:08;;;;;;;22.98;13.00;;;9.30;99.90;;;;;;5021506;28;20030;-46
2022/09/28 00:16:37;;;;;;;23.27;16.50;;;9.40;99.90;;;;;;5022731;28;20018;-45
2022/09/28 00:19:04;;;;;;;22.00;15.50;;;9.30;99.90;;;;;;5021158;28;20124;-45
2022/09/28 00:21:32;;;;;;;27.10;15.70;;;9.40;99.90;;;;;;5019981;28;20028;-45
2022/09/28 00:24:11;;;;;;;20.80;14.50;;;9.40;99.90;;;;;;5022104;28;20026;-45
2022/09/28 00:26:39;;;;;;;19.40;15.40;;;9.40;99.90;;;;;;5021319;28;20467;-45
2022/09/28 00:29:07;;;;;;;21.88;16.63;;;9.30;99.90;;;;;;5021151;28;20025;-45
2022/09/28 00:31:34;;;;;;;25.08;16.20;;;9.30;99.90;;;;;;5020066;28;20021;-45
2022/09/28 00:34:00;;;;;;;25.90;17.20;;;9.30;99.90;;;;;;5021841;28;20458;-45
2022/09/28 00:36:28;;;;;;;26.13;17.42;;;9.20;99.90;;;;;;5019630;28;20527;-45
2022/09/28 00:38:55;;;;;;;25.13;16.48;;;9.20;99.90;;;;;;5022072;28;20450;-44
2022/09/28 00:41:21;;;;;;;21.02;15.57;;;9.10;99.90;;;;;;5020575;28;20108;-45
2022/09/28 00:43:47;;;;;;;22.58;16.15;;;9.10;99.90;;;;;;5020773;28;20502;-45
2022/09/28 00:46:22;;;;;;;24.80;18.00;;;9.10;99.90;;;;;;5022045;28;20030;-44
2022/09/28 00:49:10;;;;;;;30.05;18.88;;;9.00;99.90;;;;;;5021379;28;20010;-44
2022/09/28 00:51:39;;;;;;;24.45;16.95;;;8.90;99.90;;;;;;5022178;28;20033;-45
2022/09/28 00:54:07;;;;;;;28.20;18.95;;;8.90;99.90;;;;;;5020786;28;20629;-45
2022/09/28 00:56:37;;;;;;;23.60;16.95;;;8.90;99.90;;;;;;5020332;28;20104;-45
2022/09/28 00:59:03;;;;;;;25.88;17.02;;;8.80;99.90;;;;;;5026934;28;20112;-44
2022/09/28 01:01:29;;;;;;;26.08;17.58;;;8.70;99.90;;;;;;5020693;28;20426;-46
2022/09/28 01:03:57;;;;;;;23.67;16.85;;;8.70;99.90;;;;;;5020039;28;20028;-47
2022/09/28 01:06:26;;;;;;;28.77;18.38;;;8.70;99.90;;;;;;5027015;28;20394;-46
2022/09/28 01:08:57;;;;;;;32.05;18.65;;;8.60;99.90;;;;;;5020113;28;20482;-45
2022/09/28 01:11:24;;;;;;;30.45;18.20;;;8.50;99.90;;;;;;5019912;28;20025;-45
2022/09/28 01:13:52;;;;;;;31.13;19.92;;;8.50;99.90;;;;;;5019820;28;20029;-44
2022/09/28 01:16:54;;;;;;;26.33;17.35;;;8.40;99.90;;;;;;5021459;28;20083;-46
2022/09/28 01:19:44;;;;;;;30.58;20.05;;;8.40;99.90;;;;;;5021348;28;20063;-45
2022/09/28 01:22:46;;;;;;;29.60;19.17;;;8.30;99.90;;;;;;5020550;28;20034;-45
2022/09/28 01:25:39;;;;;;;29.77;19.65;;;8.30;99.90;;;;;;5021247;28;20018;-46
2022/09/28 01:28:18;;;;;;;28.92;19.60;;;8.20;99.90;;;;;;5019906;28;20068;-46
2022/09/28 01:31:02;;;;;;;33.33;19.40;;;8.20;99.90;;;;;;5018309;28;20045;-45
2022/09/28 01:33:46;;;;;;;28.98;19.15;;;8.10;99.90;;;;;;5019833;28;20018;-45
2022/09/28 01:36:18;;;;;;;30.92;19.45;;;8.20;99.90;;;;;;5021182;28;20033;-46
2022/09/28 01:38:52;;;;;;;29.15;18.70;;;8.10;99.90;;;;;;5019552;28;20025;-44
2022/09/28 01:41:19;;;;;;;28.55;17.83;;;8.10;99.90;;;;;;5019078;28;20034;-44
2022/09/28 01:43:58;;;;;;;26.80;18.02;;;8.10;99.90;;;;;;5020134;28;20048;-44
2022/09/28 01:46:29;;;;;;;25.52;16.65;;;8.00;99.90;;;;;;5019570;28;20195;-45
2022/09/28 01:48:58;;;;;;;;;;;8.00;99.90;;;;;;5019632;28;20044;-46
2022/09/28 01:51:45;;;;;;;25.00;16.15;;;7.90;99.90;;;;;;5019144;28;19911;-47
2022/09/28 01:54:18;;;;;;;24.95;15.43;;;7.90;99.90;;;;;;5026460;28;20112;-47
2022/09/28 01:56:44;;;;;;;23.67;15.27;;;7.90;99.90;;;;;;5020487;28;20018;-44
2022/09/28 01:59:14;;;;;;;25.88;16.33;;;7.90;99.90;;;;;;5018676;28;20076;-48
2022/09/28 02:01:52;;;;;;;25.38;14.40;;;7.90;99.90;;;;;;5017346;28;20022;-48
2022/09/28 02:04:23;;;;;;;24.52;14.88;;;7.90;99.90;;;;;;5018352;28;20029;-46
2022/09/28 02:06:56;;;;;;;23.38;16.23;;;7.80;99.90;;;;;;5019522;28;20379;-45
2022/09/28 02:09:29;;;;;;;26.55;15.32;;;7.70;99.90;;;;;;5018711;28;20014;-46
2022/09/28 02:12:00;;;;;;;21.40;13.75;;;7.70;99.90;;;;;;5018789;28;20120;-47
2022/09/28 02:14:27;;;;;;;24.92;14.90;;;7.80;99.90;;;;;;5018936;28;20021;-46
2022/09/28 02:16:54;;;;;;;23.45;14.65;;;7.80;99.90;;;;;;5018949;28;20044;-45
2022/09/28 02:19:23;;;;;;;22.42;14.13;;;7.70;99.90;;;;;;5020231;28;20044;-46
2022/09/28 02:22:03;;;;;;;22.50;14.75;;;7.70;99.90;;;;;;5019318;28;20022;-45
2022/09/28 02:24:58;;;;;;;25.33;14.07;;;7.70;99.90;;;;;;5019473;28;20046;-45
2022/09/28 02:27:47;;;;;;;18.00;13.35;;;7.70;99.90;;;;;;5018646;28;20022;-44
2022/09/28 02:30:13;;;;;;;25.80;16.65;;;7.70;99.90;;;;;;5026890;28;20395;-45
2022/09/28 02:32:43;;;;;;;25.77;14.77;;;7.70;99.90;;;;;;5017761;28;20014;-44
2022/09/28 02:35:15;;;;;;;23.90;14.55;;;7.60;99.90;;;;;;5019579;28;20025;-45
2022/09/28 02:37:41;;;;;;;23.58;15.00;;;7.60;99.90;;;;;;5019042;28;20083;-46
2022/09/28 02:40:19;;;;;;;22.00;14.48;;;7.50;99.90;;;;;;5017726;28;20033;-46
2022/09/28 02:43:10;;;;;;;26.08;13.13;;;7.50;99.90;;;;;;5017999;28;20579;-46
2022/09/28 02:45:48;;;;;;;21.27;13.05;;;7.50;99.90;;;;;;5022943;28;20021;-48
2022/09/28 02:48:52;;;;;;;20.65;13.57;;;7.40;99.90;;;;;;5013805;28;20048;-47
2022/09/28 02:51:26;;;;;;;25.30;15.38;;;7.40;99.90;;;;;;5016471;28;20438;-46
2022/09/28 02:54:35;;;;;;;20.67;14.50;;;7.40;99.90;;;;;;5019258;28;20040;-48
2022/09/28 02:57:28;;;;;;;22.05;13.52;;;7.40;99.90;;;;;;5024126;28;20371;-49
2022/09/28 03:00:10;;;;;;;19.55;14.02;;;7.30;99.90;;;;;;5018387;28;20394;-48
2022/09/28 03:03:05;;;;;;;22.90;14.55;;;7.30;99.90;;;;;;5019449;28;20310;-46
2022/09/28 03:05:51;;;;;;;20.83;14.68;;;7.30;99.90;;;;;;5018037;28;20018;-48
2022/09/28 03:08:21;;;;;;;22.42;14.85;;;7.40;99.90;;;;;;5026735;28;20028;-46
2022/09/28 03:10:54;;;;;;;23.60;14.00;;;7.40;99.90;;;;;;5027429;28;20432;-46
2022/09/28 03:13:20;;;;;;;23.00;13.60;;;7.30;99.90;;;;;;5026451;28;20055;-45
2022/09/28 03:15:45;;;;;;;19.02;12.70;;;7.40;99.90;;;;;;5027327;28;20033;-45
2022/09/28 03:18:11;;;;;;;22.30;13.48;;;7.40;99.90;;;;;;5027491;28;20029;-46
2022/09/28 03:20:37;;;;;;;18.48;12.98;;;7.40;99.90;;;;;;5018646;28;20026;-45
2022/09/28 03:23:03;;;;;;;21.77;13.18;;;7.40;99.90;;;;;;5025384;28;20391;-45
2022/09/28 03:25:28;;;;;;;22.38;13.77;;;7.40;99.90;;;;;;5023663;28;20018;-48
2022/09/28 03:27:54;;;;;;;21.20;13.60;;;7.50;99.90;;;;;;5026694;28;20014;-45
2022/09/28 03:30:21;;;;;;;21.15;13.57;;;7.50;99.90;;;;;;5024940;28;20172;-47
2022/09/28 03:32:46;;;;;;;23.13;13.10;;;7.50;99.90;;;;;;5024759;28;20033;-45
2022/09/28 03:35:12;;;;;;;22.60;12.90;;;7.60;99.90;;;;;;5026489;28;20026;-46
2022/09/28 03:37:37;;;;;;;22.75;12.10;;;7.70;99.90;;;;;;5025949;28;20086;-45
2022/09/28 03:40:04;;;;;;;17.13;11.70;;;7.70;99.90;;;;;;5026502;28;20021;-45
2022/09/28 03:42:30;;;;;;;16.42;12.25;;;7.70;99.90;;;;;;5025823;28;20513;-46
2022/09/28 03:44:55;;;;;;;16.80;11.75;;;7.70;99.90;;;;;;5025821;28;20022;-45
2022/09/28 03:47:21;;;;;;;14.85;10.05;;;7.70;99.90;;;;;;5026172;28;20414;-46
2022/09/28 03:49:46;;;;;;;15.57;10.73;;;7.80;99.90;;;;;;5026247;28;20044;-45
2022/09/28 03:52:13;;;;;;;12.55;9.85;;;7.90;99.90;;;;;;5025648;28;20080;-45
2022/09/28 03:54:39;;;;;;;17.00;10.43;;;7.80;99.90;;;;;;5019090;28;20018;-48
2022/09/28 03:57:05;;;;;;;15.45;10.82;;;7.90;99.90;;;;;;5017687;28;20032;-45
2022/09/28 03:59:30;;;;;;;16.38;9.95;;;7.90;99.90;;;;;;5017395;28;20061;-46
2022/09/28 04:01:56;;;;;;;11.82;9.23;;;7.90;99.90;;;;;;5022608;28;20033;-48
2022/09/28 04:04:21;;;;;;;14.85;11.07;;;8.00;99.90;;;;;;5017794;28;20049;-45
2022/09/28 04:06:47;;;;;;;13.27;10.38;;;8.00;99.90;;;;;;5021269;28;20356;-45
2022/09/28 04:09:13;;;;;;;17.42;11.43;;;7.90;99.90;;;;;;5022355;28;20025;-46
2022/09/28 04:11:38;;;;;;;13.93;10.88;;;8.00;99.90;;;;;;5026202;28;20094;-46
2022/09/28 04:14:04;;;;;;;15.95;10.80;;;8.00;99.90;;;;;;5030248;28;20018;-46
2022/09/28 04:16:29;;;;;;;16.52;10.48;;;8.00;99.90;;;;;;5026078;28;20658;-45
2022/09/28 04:18:56;;;;;;;12.07;9.43;;;8.00;99.90;;;;;;5021941;28;20542;-46
2022/09/28 04:21:22;;;;;;;13.57;9.45;;;8.00;99.90;;;;;;5022414;28;20518;-46
2022/09/28 04:23:48;;;;;;;14.13;9.18;;;8.00;99.90;;;;;;5020025;28;20018;-45
2022/09/28 04:26:16;;;;;;;14.75;10.00;;;8.00;99.90;;;;;;5021957;28;20364;-45
2022/09/28 04:31:37;;;;;;;15.77;9.32;;;8.00;99.90;;;;;;5020862;28;20072;-45
2022/09/28 04:34:02;;;;;;;15.38;9.63;;;8.00;99.90;;;;;;5028981;28;20075;-45
2022/09/28 04:36:28;;;;;;;14.73;10.85;;;8.00;99.90;;;;;;5025528;28;20065;-46
2022/09/28 04:38:53;;;;;;;12.98;10.13;;;8.10;99.90;;;;;;5023046;28;20018;-45
2022/09/28 04:41:21;;;;;;;20.52;11.57;;;8.10;99.90;;;;;;5021978;28;20032;-46
2022/09/28 04:43:46;;;;;;;18.00;10.93;;;8.10;99.90;;;;;;5021604;28;20506;-46
2022/09/28 04:46:13;;;;;;;17.83;10.80;;;8.10;99.90;;;;;;5022006;28;20100;-45
2022/09/28 04:48:38;;;;;;;18.20;10.02;;;8.10;99.90;;;;;;5011806;28;20484;-45
2022/09/28 04:51:04;;;;;;;13.45;10.23;;;8.10;99.90;;;;;;5011483;28;20037;-45
2022/09/28 04:53:30;;;;;;;15.57;10.02;;;8.20;99.90;;;;;;5011349;28;20037;-45
2022/09/28 04:56:04;;;;;;;10.40;8.50;;;8.20;99.90;;;;;;5011885;28;20026;-45
2022/09/28 04:58:30;;;;;;;14.32;9.95;;;8.20;99.90;;;;;;5011909;28;20506;-45
2022/09/28 05:00:59;;;;;;;19.92;11.48;;;8.20;99.90;;;;;;5011454;28;20052;-46
2022/09/28 05:03:25;;;;;;;15.07;10.95;;;8.30;99.90;;;;;;5010943;28;20254;-44
2022/09/28 05:05:51;;;;;;;19.25;11.32;;;8.30;99.90;;;;;;5011530;28;20041;-45
2022/09/28 05:08:17;;;;;;;12.23;9.25;;;8.30;99.90;;;;;;5013431;28;20030;-46
2022/09/28 05:10:43;;;;;;;11.90;9.23;;;8.30;99.90;;;;;;5031010;28;20367;-45
2022/09/28 05:13:09;;;;;;;12.82;9.70;;;8.30;99.90;;;;;;5029120;28;20021;-49
2022/09/28 05:15:37;;;;;;;11.02;7.88;;;8.30;99.90;;;;;;5030787;28;20021;-45
2022/09/28 05:18:03;;;;;;;14.07;9.85;;;8.40;99.90;;;;;;5030309;28;20034;-46
2022/09/28 05:20:29;;;;;;;14.98;9.88;;;8.40;99.90;;;;;;5030467;28;20078;-49
2022/09/28 05:22:54;;;;;;;14.35;11.93;;;8.40;99.90;;;;;;5030034;28;20449;-45
2022/09/28 05:25:20;;;;;;;14.32;9.82;;;8.40;99.90;;;;;;5030668;28;20074;-46
2022/09/28 05:27:46;;;;;;;13.32;10.60;;;8.40;99.90;;;;;;5030639;28;20022;-48
2022/09/28 05:30:12;;;;;;;16.02;10.70;;;8.40;99.90;;;;;;5030903;28;20032;-45
2022/09/28 05:32:42;;;;;;;183.32;105.68;;;8.50;99.90;;;;;;5028796;28;20078;-47
2022/09/28 05:35:12;;;;;;;47.60;28.83;;;8.50;99.90;;;;;;5030504;28;20029;-45
2022/09/28 05:37:38;;;;;;;33.30;21.73;;;8.50;99.90;;;;;;5030530;28;20025;-45
2022/09/28 05:40:04;;;;;;;22.08;14.65;;;8.60;99.90;;;;;;5030180;28;20052;-45
2022/09/28 05:42:30;;;;;;;16.40;11.55;;;8.60;99.90;;;;;;5030269;28;20030;-45
2022/09/28 05:44:58;;;;;;;14.20;11.15;;;8.60;99.90;;;;;;5029992;28;20028;-45
2022/09/28 05:47:25;;;;;;;14.23;10.93;;;8.60;99.90;;;;;;5028738;28;20053;-46
2022/09/28 05:49:52;;;;;;;14.65;11.63;;;8.60;99.90;;;;;;5029042;28;20026;-45
2022/09/28 05:52:18;;;;;;;13.90;10.63;;;8.60;99.90;;;;;;5028552;28;20034;-46
2022/09/28 05:54:43;;;;;;;20.33;11.93;;;8.60;99.90;;;;;;5028500;28;20029;-45
2022/09/28 05:57:09;;;;;;;15.18;10.82;;;8.70;99.90;;;;;;5028491;28;20029;-45
2022/09/28 05:59:35;;;;;;;14.35;10.73;;;8.60;99.90;;;;;;5028519;28;20531;-45
2022/09/28 06:02:01;;;;;;;16.27;11.05;;;8.70;99.90;;;;;;5029856;28;20041;-44
2022/09/28 06:04:27;;;;;;;12.80;9.70;;;8.70;99.90;;;;;;5029551;28;20032;-45
2022/09/28 06:06:53;;;;;;;21.15;13.80;;;8.70;99.90;;;;;;5028802;28;20107;-44
2022/09/28 06:09:19;;;;;;;17.60;12.45;;;8.60;99.90;;;;;;5029981;28;20491;-45
2022/09/28 06:11:44;;;;;;;15.80;11.75;;;8.70;99.90;;;;;;5029896;28;20391;-45
2022/09/28 06:14:12;;;;;;;16.20;11.90;;;8.60;99.90;;;;;;5029369;28;20730;-45
2022/09/28 06:16:38;;;;;;;16.73;11.20;;;8.60;99.90;;;;;;5029781;28;20028;-45
2022/09/28 06:19:03;;;;;;;17.05;11.10;;;8.60;99.90;;;;;;5028418;28;20337;-45
2022/09/28 06:21:29;;;;;;;18.52;10.82;;;8.60;99.90;;;;;;5029608;28;20076;-45
2022/09/28 06:23:54;;;;;;;14.18;10.63;;;8.60;99.90;;;;;;5029277;28;20021;-45
2022/09/28 06:26:20;;;;;;;17.85;11.75;;;8.60;99.90;;;;;;5029665;28;20052;-45
2022/09/28 06:28:45;;;;;;;16.33;11.10;;;8.60;99.90;;;;;;5028968;28;20021;-45
2022/09/28 06:31:11;;;;;;;15.70;10.98;;;8.60;99.90;;;;;;5029457;28;20402;-45
2022/09/28 06:33:37;;;;;;;13.30;10.30;;;8.60;99.90;;;;;;5029064;28;20116;-46
2022/09/28 06:36:03;;;;;;;23.00;12.55;;;8.60;99.90;;;;;;5027378;28;20022;-45
2022/09/28 06:38:29;;;;;;;18.10;11.65;;;8.60;99.90;;;;;;5011591;28;20474;-45
2022/09/28 06:40:56;;;;;;;15.82;10.70;;;8.60;99.90;;;;;;5007876;28;20518;-44
2022/09/28 06:43:21;;;;;;;19.08;10.85;;;8.60;99.90;;;;;;5008056;28;20033;-44
2022/09/28 06:45:53;;;;;;;15.00;9.98;;;8.50;99.90;;;;;;5009787;28;20079;-44
2022/09/28 06:48:19;;;;;;;16.10;10.55;;;8.50;99.90;;;;;;5009759;28;20492;-46
2022/09/28 06:50:44;;;;;;;16.45;11.00;;;8.50;99.90;;;;;;5009809;28;20037;-45
2022/09/28 06:53:12;;;;;;;34.28;21.73;;;8.60;99.90;;;;;;5009353;28;20026;-45
2022/09/28 06:55:39;;;;;;;49.00;28.48;;;8.50;99.90;;;;;;5009817;28;20026;-45
2022/09/28 06:58:09;;;;;;;44.10;21.13;;;8.60;99.90;;;;;;5009530;28;20033;-46
2022/09/28 07:00:36;;;;;;;19.27;10.77;;;8.60;99.90;;;;;;5008222;28;20030;-45
2022/09/28 07:03:05;;;;;;;14.52;9.82;;;8.60;99.90;;;;;;5009094;28;20026;-45
2022/09/28 07:05:33;;;;;;;14.38;9.05;;;8.60;99.90;;;;;;5009566;28;20029;-45
2022/09/28 07:08:00;;;;;;;12.85;8.70;;;8.70;99.90;;;;;;5009331;28;20049;-45
2022/09/28 07:10:27;;;;;;;14.48;9.50;;;8.70;99.90;;;;;;5009447;28;20018;-46
2022/09/28 07:12:54;;;;;;;12.68;8.45;;;8.70;99.90;;;;;;5008841;28;20673;-45
2022/09/28 07:15:20;;;;;;;17.63;9.55;;;8.80;99.90;;;;;;5009301;28;20042;-45
2022/09/28 07:17:46;;;;;;;13.07;9.25;;;8.80;99.90;;;;;;5009424;28;20026;-45
2022/09/28 07:20:12;;;;;;;17.45;10.50;;;8.80;99.90;;;;;;5009389;28;20431;-45
2022/09/28 07:22:38;;;;;;;15.68;10.38;;;8.80;99.90;;;;;;5008896;28;20485;-45
2022/09/28 07:25:07;;;;;;;13.48;9.05;;;8.80;99.90;;;;;;5008269;28;20032;-46
2022/09/28 07:27:33;;;;;;;17.60;11.57;;;8.80;99.90;;;;;;5007912;28;20034;-47
2022/09/28 07:29:58;;;;;;;12.45;8.65;;;8.90;99.90;;;;;;5007901;28;20388;-45
2022/09/28 07:32:26;;;;;;;12.43;8.10;;;8.90;99.90;;;;;;5008781;28;20038;-46
2022/09/28 07:34:52;;;;;;;13.45;9.43;;;8.90;99.90;;;;;;5009289;28;20030;-48
2022/09/28 07:37:18;;;;;;;15.77;9.52;;;8.80;99.90;;;;;;5008261;28;20076;-46
2022/09/28 07:42:29;;;;;;;11.82;9.18;;;8.90;99.90;;;;;;5012447;28;20040;-46
2022/09/28 07:44:58;;;;;;;16.50;9.18;;;9.00;99.90;;;;;;5012617;28;20097;-46
2022/09/28 07:47:27;;;;;;;13.88;8.52;;;9.00;99.90;;;;;;5012906;28;20026;-46
2022/09/28 07:49:55;;;;;;;12.07;8.05;;;9.00;99.90;;;;;;5012691;28;20092;-46
2022/09/28 07:52:25;;;;;;;10.48;7.55;;;9.10;99.90;;;;;;5012392;28;20368;-46
2022/09/28 07:54:52;;;;;;;10.93;8.50;;;9.20;99.90;;;;;;5012603;28;20538;-48
2022/09/28 07:57:19;;;;;;;14.80;8.90;;;9.30;99.90;;;;;;5012777;28;20030;-46
2022/09/28 07:59:45;;;;;;;11.02;8.43;;;9.30;99.90;;;;;;5012905;28;20036;-46
2022/09/28 08:02:10;;;;;;;10.65;7.53;;;9.30;99.90;;;;;;5011395;28;20376;-46
2022/09/28 08:04:36;;;;;;;15.60;9.00;;;9.40;99.90;;;;;;5010936;28;20486;-46
2022/09/28 08:07:02;;;;;;;13.23;8.10;;;9.40;99.90;;;;;;5012612;28;20353;-47
2022/09/28 08:09:28;;;;;;;11.23;6.85;;;9.50;99.90;;;;;;5012263;28;20022;-46
2022/09/28 08:11:54;;;;;;;11.32;6.45;;;9.50;99.90;;;;;;5011786;28;20034;-45
2022/09/28 08:14:20;;;;;;;10.27;5.97;;;9.60;99.90;;;;;;5011546;28;20034;-45
2022/09/28 08:16:45;;;;;;;9.07;6.15;;;9.60;99.90;;;;;;5012595;28;20076;-46
2022/09/28 08:19:11;;;;;;;8.55;5.68;;;9.50;99.90;;;;;;5012098;28;20492;-47
2022/09/28 08:21:46;;;;;;;9.00;5.40;;;9.40;99.90;;;;;;5012044;28;20491;-46
2022/09/28 08:24:15;;;;;;;5.88;4.07;;;9.50;99.90;;;;;;5011883;28;20048;-45
2022/09/28 08:26:42;;;;;;;8.43;4.43;;;9.50;99.90;;;;;;5010798;28;20447;-48
2022/09/28 08:29:07;;;;;;;7.88;4.55;;;9.50;99.90;;;;;;5010669;28;20021;-48
2022/09/28 08:31:33;;;;;;;5.80;3.65;;;9.70;99.90;;;;;;5011983;28;20025;-47
2022/09/28 08:33:59;;;;;;;5.38;3.35;;;9.80;99.90;;;;;;5011585;28;20176;-46
2022/09/28 08:36:24;;;;;;;6.78;5.03;;;9.80;99.90;;;;;;5011998;28;20026;-46
2022/09/28 08:38:50;;;;;;;5.85;4.07;;;9.90;99.90;;;;;;5010840;28;20342;-48
2022/09/28 08:41:49;;;;;;;3.88;2.95;;;9.90;99.90;;;;;;5012053;28;20482;-46
2022/09/28 08:44:23;;;;;;;4.68;2.50;;;10.00;99.90;;;;;;5009982;28;20108;-46
2022/09/28 08:46:54;;;;;;;3.72;2.25;;;10.00;99.90;;;;;;5011531;28;20030;-45
2022/09/28 08:49:35;;;;;;;3.05;2.08;;;10.00;99.90;;;;;;5011577;28;20517;-46
2022/09/28 08:52:24;;;;;;;5.82;2.60;;;10.10;99.90;;;;;;5009509;28;20033;-47
2022/09/28 08:54:58;;;;;;;4.07;2.22;;;10.20;99.90;;;;;;5011401;28;20558;-46
2022/09/28 08:57:35;;;;;;;2.47;1.88;;;10.20;99.90;;;;;;5011212;28;20033;-46
2022/09/28 09:00:03;;;;;;;3.15;1.88;;;10.30;99.90;;;;;;5011432;28;20109;-46
2022/09/28 09:02:35;;;;;;;3.42;2.60;;;10.30;99.90;;;;;;5010706;28;20475;-46
2022/09/28 09:05:13;;;;;;;2.92;2.10;;;10.30;99.90;;;;;;5009951;28;20118;-46
2022/09/28 09:07:51;;;;;;;4.72;2.00;;;10.40;99.90;;;;;;5011175;28;20104;-46
2022/09/28 09:10:46;;;;;;;2.85;1.75;;;10.50;99.90;;;;;;5011528;28;20022;-46
2022/09/28 09:13:22;;;;;;;2.47;1.80;;;10.60;99.90;;;;;;5010600;28;20499;-47
2022/09/28 09:16:08;;;;;;;1.90;1.52;;;10.60;99.90;;;;;;5009812;28;20026;-46
2022/09/28 09:19:19;;;;;;;1.65;1.40;;;10.60;99.90;;;;;;5010878;28;20271;-46
2022/09/28 09:22:01;;;;;;;2.85;1.30;;;10.70;99.90;;;;;;5010465;28;20053;-46
2022/09/28 09:24:45;;;;;;;3.72;1.27;;;10.80;99.90;;;;;;5010542;28;20052;-46
2022/09/28 09:27:19;;;;;;;2.60;1.40;;;10.80;99.90;;;;;;5009919;28;20018;-46
2022/09/28 09:30:00;;;;;;;3.42;1.00;;;10.80;99.90;;;;;;5010900;28;20034;-48
2022/09/28 09:32:53;;;;;;;1.67;1.00;;;10.90;99.90;;;;;;5010327;28;20022;-46
2022/09/28 09:35:55;;;;;;;2.85;1.40;;;10.90;99.90;;;;;;5010776;28;20026;-49
2022/09/28 09:38:40;;;;;;;0.95;0.95;;;11.00;99.90;;;;;;5010700;28;20018;-46
2022/09/28 09:41:36;;;;;;;2.13;1.17;;;11.10;99.90;;;;;;5010387;28;20451;-46
2022/09/28 09:44:26;;;;;;;1.45;1.13;;;11.20;99.90;;;;;;5010165;28;20033;-46
2022/09/28 09:47:06;;;;;;;2.95;1.00;;;11.20;99.90;;;;;;5010473;28;20025;-46
2022/09/28 09:49:54;;;;;;;2.35;0.98;;;11.30;99.90;;;;;;5009698;28;20565;-49
2022/09/28 09:52:32;;;;;;;3.22;1.10;;;11.30;99.90;;;;;;5008245;28;20040;-46
2022/09/28 09:55:26;;;;;;;1.85;1.17;;;11.10;99.90;;;;;;5009703;28;20030;-45
2022/09/28 09:58:09;;;;;;;1.88;1.00;;;11.30;99.90;;;;;;5009760;28;20029;-46
2022/09/28 10:00:37;;;;;;;0.98;0.70;;;11.30;99.90;;;;;;5011127;28;20092;-52
2022/09/28 10:03:03;;;;;;;0.88;0.70;;;11.30;99.90;;;;;;5025970;28;20344;-51
2022/09/28 10:05:31;;;;;;;1.40;0.93;;;11.60;99.90;;;;;;5015955;28;20041;-51
2022/09/28 10:08:09;;;;;;;1.00;0.80;;;11.60;99.90;;;;;;5010065;28;20053;-51
2022/09/28 10:10:39;;;;;;;0.68;0.68;;;11.60;99.90;;;;;;5010309;28;20030;-50
2022/09/28 10:13:04;;;;;;;0.50;0.50;;;11.80;99.90;;;;;;5009754;28;20036;-51
2022/09/28 10:15:32;;;;;;;0.60;0.60;;;11.80;99.90;;;;;;5010687;28;20435;-49
2022/09/28 10:18:08;;;;;;;0.52;0.52;;;11.90;99.90;;;;;;5010555;28;20057;-52
2022/09/28 10:20:37;;;;;;;0.50;0.50;;;11.80;99.90;;;;;;5010545;28;20046;-50
2022/09/28 10:23:08;;;;;;;1.00;0.68;;;11.70;99.90;;;;;;5007847;28;20026;-50
2022/09/28 10:25:36;;;;;;;2.33;0.75;;;11.80;99.90;;;;;;5010200;28;20025;-51
2022/09/28 10:28:05;;;;;;;1.17;0.80;;;11.90;99.90;;;;;;5009862;28;20025;-51
2022/09/28 10:30:40;;;;;;;0.82;0.82;;;12.00;99.90;;;;;;5010348;28;20040;-50
2022/09/28 10:33:27;;;;;;;0.50;0.50;;;12.00;99.90;;;;;;5009817;28;20053;-51
2022/09/28 10:35:53;;;;;;;0.55;0.52;;;12.10;99.90;;;;;;5010679;28;20380;-52
2022/09/28 10:38:19;;;;;;;40.17;24.33;;;12.00;99.90;;;;;;5011156;28;20028;-52
2022/09/28 10:41:08;;;;;;;31.90;20.25;;;12.00;99.90;;;;;;5011190;28;20050;-50
2022/09/28 10:43:37;;;;;;;4.43;3.30;;;12.20;99.90;;;;;;5010575;28;20026;-50
2022/09/28 10:46:09;;;;;;;1.00;1.00;;;12.20;99.90;;;;;;5010841;28;20484;-50
2022/09/28 10:48:46;;;;;;;4.47;0.65;;;12.20;99.90;;;;;;5011082;28;20026;-51
2022/09/28 10:51:12;;;;;;;0.80;0.80;;;12.10;99.90;;;;;;5010852;28;20491;-51
2022/09/28 10:53:38;;;;;;;1.02;0.70;;;12.10;99.90;;;;;;5008926;28;20072;-52
2022/09/28 10:56:09;;;;;;;2.10;0.80;;;11.90;99.90;;;;;;5010552;28;20048;-51
2022/09/28 10:58:39;;;;;;;;;;;11.80;99.90;;;;;;5010958;28;20022;-52
2022/09/28 11:01:29;;;;;;;0.82;0.50;;;11.80;99.90;;;;;;5010530;28;19948;-52
2022/09/28 11:04:05;;;;;;;0.82;0.50;;;11.90;99.90;;;;;;5010094;28;20487;-52
2022/09/28 11:06:36;;;;;;;2.53;0.63;;;11.90;99.90;;;;;;5010772;28;20412;-51
2022/09/28 11:09:18;;;;;;;1.00;0.63;;;12.00;99.90;;;;;;5010665;28;20026;-53
2022/09/28 11:11:43;;;;;;;0.93;0.60;;;12.00;99.90;;;;;;5013092;28;20026;-52
2022/09/28 11:14:28;;;;;;;1.25;0.80;;;12.10;99.90;;;;;;5025680;28;20523;-51
2022/09/28 11:17:27;;;;;;;1.27;0.80;;;12.10;99.90;;;;;;5031622;28;20030;-51
2022/09/28 11:19:55;;;;;;;0.75;0.60;;;12.10;99.90;;;;;;5031655;28;20552;-52
2022/09/28 11:22:22;;;;;;;1.02;0.70;;;12.10;99.90;;;;;;5031600;28;20018;-49
2022/09/28 11:24:48;;;;;;;1.20;0.57;;;12.20;99.90;;;;;;5029021;28;20260;-52
2022/09/28 11:27:20;;;;;;;1.48;0.63;;;12.20;99.90;;;;;;5031986;28;20116;-51
2022/09/28 11:29:55;;;;;;;0.88;0.70;;;12.30;99.90;;;;;;5032213;28;20017;-51
2022/09/28 11:32:23;;;;;;;1.10;0.88;;;12.30;99.90;;;;;;5031832;28;20072;-51
2022/09/28 11:34:51;;;;;;;0.93;0.47;;;12.20;99.90;;;;;;5031346;28;20049;-51
2022/09/28 11:37:16;;;;;;;0.90;0.50;;;12.20;99.90;;;;;;5031879;28;20053;-52
2022/09/28 11:40:09;;;;;;;0.88;0.60;;;12.00;99.90;;;;;;5031966;28;20057;-51
2022/09/28 11:42:48;;;;;;;0.85;0.55;;;12.00;99.90;;;;;;5031499;28;20038;-51
2022/09/28 11:45:41;;;;;;;1.65;0.73;;;11.80;99.90;;;;;;5031912;28;20156;-51
2022/09/28 11:48:11;;;;;;;0.68;0.52;;;11.80;99.90;;;;;;5030462;28;20032;-50
2022/09/28 11:50:55;;;;;;;4.78;1.02;;;11.80;99.90;;;;;;5032064;28;20105;-51
2022/09/28 11:53:30;;;;;;;4.45;1.27;;;11.80;99.90;;;;;;5031341;28;20116;-51
2022/09/28 11:56:13;;;;;;;0.77;0.50;;;11.80;99.90;;;;;;5031468;28;20030;-51
2022/09/28 11:58:46;;;;;;;0.65;0.60;;;11.60;99.90;;;;;;5031783;28;20296;-48
2022/09/28 12:01:15;;;;;;;0.85;0.50;;;11.30;99.90;;;;;;5030358;28;20073;-46
2022/09/28 12:03:56;;;;;;;2.15;0.60;;;11.30;99.90;;;;;;5031062;28;20025;-45
2022/09/28 12:06:30;;;;;;;1.85;0.80;;;11.30;99.90;;;;;;5031625;28;20368;-46
2022/09/28 12:09:05;;;;;;;0.70;0.70;;;10.90;99.90;;;;;;5029829;28;20025;-48
2022/09/28 12:11:37;;;;;;;0.70;0.70;;;10.60;99.90;;;;;;5031345;28;20426;-47
2022/09/28 12:14:09;;;;;;;0.93;0.80;;;10.40;99.90;;;;;;5029004;28;20037;-46
2022/09/28 12:16:43;;;;;;;1.42;0.70;;;10.10;99.90;;;;;;5030506;28;20061;-47
2022/09/28 12:19:20;;;;;;;0.47;0.47;;;9.90;99.90;;;;;;5030889;28;20048;-45
2022/09/28 12:21:51;;;;;;;1.40;0.88;;;9.90;99.90;;;;;;5030627;28;20035;-44
2022/09/28 12:24:29;;;;;;;0.77;0.75;;;9.80;99.90;;;;;;5030699;28;20026;-45
2022/09/28 12:27:19;;;;;;;0.80;0.60;;;9.90;99.90;;;;;;5030253;28;20682;-45
2022/09/28 12:29:58;;;;;;;4.75;3.25;;;10.00;99.90;;;;;;5031041;28;20506;-45
2022/09/28 12:32:48;;;;;;;1.00;0.70;;;10.10;99.90;;;;;;5030546;28;20167;-46
2022/09/28 12:35:47;;;;;;;2.13;0.73;;;10.10;99.90;;;;;;5012251;28;20038;-46
2022/09/28 12:38:51;;;;;;;0.75;0.63;;;10.00;99.90;;;;;;5010031;28;20041;-44
2022/09/28 12:41:32;;;;;;;1.13;0.70;;;10.10;99.90;;;;;;5010559;28;20052;-45
2022/09/28 12:44:12;;;;;;;1.10;0.70;;;10.30;99.90;;;;;;5011332;28;20026;-45
2022/09/28 12:47:04;;;;;;;2.58;0.70;;;10.30;99.90;;;;;;5011412;28;20418;-45
2022/09/28 12:49:57;;;;;;;1.52;0.95;;;10.30;99.90;;;;;;5012098;28;20029;-45
2022/09/28 12:53:00;;;;;;;2.05;0.90;;;10.30;99.90;;;;;;5010644;28;20085;-45
2022/09/28 12:55:34;;;;;;;1.90;0.75;;;10.50;99.90;;;;;;5022080;28;20036;-45
2022/09/28 12:58:22;;;;;;;1.75;0.88;;;10.50;99.90;;;;;;5031297;28;20028;-45
2022/09/28 13:01:00;;;;;;;1.33;1.00;;;10.60;99.90;;;;;;5024262;28;20033;-46
2022/09/28 13:03:44;;;;;;;1.08;0.98;;;10.60;99.90;;;;;;5009834;28;20737;-46
2022/09/28 13:06:35;;;;;;;0.93;0.63;;;10.60;99.90;;;;;;5013695;28;20092;-45
2022/09/28 13:09:12;;;;;;;0.80;0.80;;;10.60;99.90;;;;;;5042276;28;20013;-44
2022/09/28 13:11:45;;;;;;;1.95;1.08;;;10.60;99.90;;;;;;5050633;28;20474;-46
2022/09/28 13:14:52;;;;;;;1.80;1.00;;;10.70;99.90;;;;;;5048644;28;20024;-45
2022/09/28 13:17:18;;;;;;;1.63;0.82;;;10.70;99.90;;;;;;5025153;28;20040;-46